Time;durP1;ratioP1;P1;durP2;ratioP2;P2;SDS_P1;SDS_P2;PMS_P1;PMS_P2;Temp;Humidity;BMP_temperature;BMP_pressure;BME280_temperature;BME280_humidity;BME280_pressure;Samples;Min_cycle;Max_cycle;Signal;HPM_P1;HPM_P2
2021/10/28 00:14:05;;;;;;;30.93;15.80;;;;;;;7.25;71.94;101116.81;1736266;83;21094;-62
2021/10/28 00:16:36;;;;;;;28.05;14.68;;;;;;;7.25;71.95;101114.59;1736405;83;21034;-61
2021/10/28 00:19:05;;;;;;;26.85;14.78;;;;;;;7.28;71.88;101117.86;1736103;81;21662;-60
2021/10/28 00:21:37;;;;;;;27.55;15.13;;;;;;;7.33;71.74;101120.11;1736324;83;21536;-61
2021/10/28 00:24:10;;;;;;;29.70;15.98;;;;;;;7.33;71.67;101124.20;1736028;81;21237;-62
2021/10/28 00:26:42;;;;;;;31.00;15.95;;;;;;;7.27;71.67;101116.16;1736113;83;21082;-63
2021/10/28 00:29:15;;;;;;;32.45;16.20;;;;;;;7.24;71.78;101115.11;1736201;83;21189;-62
2021/10/28 00:31:46;;;;;;;34.05;16.37;;;;;;;7.20;71.88;101117.80;1736287;83;21038;-60
2021/10/28 00:34:15;;;;;;;29.32;14.85;;;;;;;7.20;72.00;101122.39;1736023;81;21230;-61
2021/10/28 00:36:46;;;;;;;33.00;16.35;;;;;;;7.19;72.03;101111.14;1736078;83;21706;-61
2021/10/28 00:39:15;;;;;;;31.10;16.00;;;;;;;7.20;72.04;101110.12;1736074;81;21455;-60
2021/10/28 00:41:44;;;;;;;28.55;15.43;;;;;;;7.21;72.05;101115.42;1736379;83;21086;-61
2021/10/28 00:44:12;;;;;;;30.27;15.60;;;;;;;7.18;72.06;101112.16;1736394;81;21479;-62
2021/10/28 00:46:41;;;;;;;28.23;15.25;;;;;;;7.18;72.05;101111.66;1736127;83;21146;-61
2021/10/28 00:49:11;;;;;;;28.15;15.40;;;;;;;7.21;71.96;101111.34;1736298;83;21539;-61
2021/10/28 00:51:41;;;;;;;29.70;16.30;;;;;;;7.19;71.99;101107.91;1742871;81;21184;-61
2021/10/28 00:54:14;;;;;;;29.87;14.80;;;;;;;7.17;72.06;101106.36;1760187;80;21041;-62
2021/10/28 00:56:43;;;;;;;31.42;15.03;;;;;;;7.12;72.24;101102.72;1759863;80;21069;-61
2021/10/28 00:59:12;;;;;;;32.05;15.75;;;;;;;7.10;72.33;101102.52;1760096;80;21260;-60
2021/10/28 01:01:41;;;;;;;33.98;15.80;;;;;;;7.10;72.37;101097.08;1759833;81;21493;-60
2021/10/28 01:04:11;;;;;;;29.45;15.28;;;;;;;7.10;72.44;101096.56;1760201;80;21041;-61
2021/10/28 01:06:40;;;;;;;28.83;15.63;;;;;;;7.06;72.46;101085.63;1760156;81;21033;-61
2021/10/28 01:09:10;;;;;;;27.35;16.37;;;;;;;7.06;72.52;101078.82;1763718;81;21485;-61
2021/10/28 01:11:41;;;;;;;30.12;15.95;;;;;;;7.03;72.55;101075.05;1759866;81;21081;-62
2021/10/28 01:14:09;;;;;;;31.70;16.23;;;;;;;7.04;72.59;101091.75;1759859;80;21579;-62
2021/10/28 01:16:38;;;;;;;31.60;16.27;;;;;;;7.07;72.51;101080.53;1759907;80;21030;-61
2021/10/28 01:19:06;;;;;;;31.93;16.10;;;;;;;7.07;72.42;101085.98;1759862;81;21525;-61
2021/10/28 01:21:36;;;;;;;33.50;16.42;;;;;;;7.03;72.54;101085.95;1760184;80;21473;-62
2021/10/28 01:24:04;;;;;;;38.63;17.55;;;;;;;7.05;72.64;101087.16;1760075;81;21974;-61
2021/10/28 01:26:33;;;;;;;31.97;17.17;;;;;;;7.03;72.66;101085.95;1759961;81;21038;-60
2021/10/28 01:29:03;;;;;;;35.78;17.48;;;;;;;7.03;72.65;101088.67;1759936;80;21069;-61
2021/10/28 01:31:33;;;;;;;41.70;19.15;;;;;;;7.02;72.66;101087.47;1759960;81;21091;-61
2021/10/28 01:34:04;;;;;;;34.38;18.67;;;;;;;7.01;72.72;101075.72;1760131;80;21026;-62
2021/10/28 01:36:34;;;;;;;36.65;18.67;;;;;;;6.99;72.83;101064.98;1760244;81;21077;-62
2021/10/28 01:39:18;;;;;;;39.20;19.20;;;;;;;6.95;72.86;101060.00;1760091;81;21129;-60
2021/10/28 01:41:47;;;;;;;38.88;20.55;;;;;;;6.92;72.96;101062.54;1760176;81;21539;-63
2021/10/28 01:44:17;;;;;;;39.83;20.82;;;;;;;6.90;73.00;101062.34;1760395;80;21140;-61
2021/10/28 01:46:47;;;;;;;46.30;23.65;;;;;;;6.90;72.99;101065.92;1759982;81;21057;-61
2021/10/28 01:49:25;;;;;;;53.00;28.75;;;;;;;6.90;73.07;101061.84;1759939;80;21493;-62
2021/10/28 01:51:54;;;;;;;43.33;24.82;;;;;;;6.90;73.12;101063.70;1749594;80;21592;-61
2021/10/28 01:54:24;;;;;;;51.70;28.02;;;;;;;6.88;73.20;101058.92;1734140;81;21142;-60
2021/10/28 01:56:52;;;;;;;45.98;26.07;;;;;;;6.91;73.13;101058.10;1734078;81;21042;-62
2021/10/28 01:59:21;;;;;;;51.63;27.42;;;;;;;6.90;73.14;101050.95;1734230;81;21052;-61
2021/10/28 02:01:50;;;;;;;54.30;26.42;;;;;;;6.91;73.20;101064.06;1734047;83;21183;-61
2021/10/28 02:04:19;;;;;;;49.98;28.50;;;;;;;6.90;73.18;101069.16;1734107;83;21149;-62
2021/10/28 02:06:48;;;;;;;43.48;25.00;;;;;;;6.88;73.18;101067.09;1734132;83;21435;-62
2021/10/28 02:09:18;;;;;;;46.63;24.15;;;;;;;6.89;73.14;101063.36;1734286;83;21582;-62
2021/10/28 02:11:47;;;;;;;51.60;26.57;;;;;;;6.91;73.04;101059.47;1734386;83;21465;-62
2021/10/28 02:14:16;;;;;;;47.00;24.40;;;;;;;6.92;73.05;101050.78;1734261;81;21556;-61
2021/10/28 02:16:44;;;;;;;49.98;26.65;;;;;;;6.90;73.07;101052.30;1734006;83;21035;-62
2021/10/28 02:19:13;;;;;;;51.28;27.48;;;;;;;6.86;73.12;101060.95;1734263;81;21628;-62
2021/10/28 02:21:42;;;;;;;45.40;24.77;;;;;;;6.84;73.21;101060.25;1734327;83;21498;-62
2021/10/28 02:24:12;;;;;;;43.23;22.93;;;;;;;6.87;73.23;101074.92;1734335;83;22008;-61
2021/10/28 02:26:41;;;;;;;45.25;22.80;;;;;;;6.89;73.20;101073.75;1734204;83;21026;-62
2021/10/28 02:29:10;;;;;;;42.20;22.58;;;;;;;6.94;73.16;101076.00;1734080;83;21051;-63
2021/10/28 02:31:43;;;;;;;39.95;22.30;;;;;;;6.98;73.06;101080.98;1734265;83;21161;-62
2021/10/28 02:34:11;;;;;;;36.33;19.92;;;;;;;7.01;73.01;101075.72;1734004;83;21094;-61
2021/10/28 02:36:41;;;;;;;35.35;19.67;;;;;;;7.01;73.03;101078.44;1734092;81;21038;-61
2021/10/28 02:39:11;;;;;;;36.48;19.62;;;;;;;6.99;72.98;101073.16;1734045;81;21590;-62
2021/10/28 02:41:40;;;;;;;36.83;18.30;;;;;;;6.96;73.02;101070.74;1734111;81;21075;-61
2021/10/28 02:44:10;;;;;;;39.25;20.57;;;;;;;6.98;73.11;101064.63;1734330;81;21416;-60
2021/10/28 02:46:39;;;;;;;40.08;21.87;;;;;;;6.98;73.10;101065.99;1734014;83;21007;-60
2021/10/28 02:49:13;;;;;;;39.05;20.80;;;;;;;6.97;73.09;101060.19;1733957;83;21046;-61
2021/10/28 02:51:39;;;;;;;39.42;20.08;;;;;;;6.94;73.13;101055.56;1734261;81;21494;-60
2021/10/28 02:54:08;;;;;;;37.70;19.25;;;;;;;6.91;73.25;101054.52;1734178;83;21479;-61
2021/10/28 02:56:37;;;;;;;41.33;21.50;;;;;;;6.89;73.29;101053.83;1734247;81;21525;-60
2021/10/28 02:59:07;;;;;;;41.92;21.35;;;;;;;6.83;73.35;101053.09;1733986;81;21050;-61
2021/10/28 03:01:42;;;;;;;41.23;22.22;;;;;;;6.75;73.50;101058.47;1734294;83;21038;-62
2021/10/28 03:04:13;;;;;;;40.35;21.02;;;;;;;6.70;73.63;101064.39;1734031;81;21067;-61
2021/10/28 03:06:43;;;;;;;45.85;22.02;;;;;;;6.70;73.72;101056.72;1733991;81;20999;-62
2021/10/28 03:09:20;;;;;;;49.18;23.83;;;;;;;6.71;73.76;101060.66;1734020;81;21046;-61
2021/10/28 03:11:51;;;;;;;55.10;25.15;;;;;;;6.68;73.85;101059.09;1734134;81;21446;-62
2021/10/28 03:14:31;;;;;;;51.58;23.07;;;;;;;6.67;73.90;101051.09;1734032;83;21447;-61
2021/10/28 03:17:06;;;;;;;49.95;24.23;;;;;;;6.66;73.96;101048.88;1732642;83;21517;-61
2021/10/28 03:27:38;;;;;;;43.78;20.00;;;;;;;6.68;73.97;101050.93;1734009;81;21090;-62
2021/10/28 03:30:08;;;;;;;43.05;22.15;;;;;;;6.68;73.94;101050.93;1734158;83;21571;-61
2021/10/28 03:32:37;;;;;;;45.30;23.45;;;;;;;6.72;73.94;101045.17;1734307;83;21043;-62
2021/10/28 03:35:09;;;;;;;40.45;23.10;;;;;;;6.68;73.97;101055.02;1734211;83;21470;-61
2021/10/28 03:37:42;;;;;;;37.53;20.00;;;;;;;6.67;74.04;101057.39;1733961;83;21070;-61
2021/10/28 03:46:16;;;;;;;40.95;21.60;;;;;;;6.75;74.04;101061.20;1734172;81;21449;-61
2021/10/28 03:48:40;;;;;;;40.73;21.20;;;;;;;6.76;74.05;101052.02;1731216;83;21448;-62
2021/10/28 03:51:14;;;;;;;44.23;21.40;;;;;;;6.76;74.08;101052.02;1731380;83;21043;-61
2021/10/28 03:56:48;;;;;;;41.05;21.50;;;;;;;6.84;73.87;101049.36;1736141;83;21201;-63
2021/10/28 03:59:16;;;;;;;47.88;23.00;;;;;;;6.87;73.78;101049.89;1732911;82;21130;-60
2021/10/28 04:01:51;;;;;;;43.50;22.13;;;;;;;6.91;73.74;101041.76;1734076;82;21169;-61
2021/10/28 04:20:40;;;;;;;43.30;22.70;;;;;;;7.05;73.46;101047.64;1736028;83;21109;-61
2021/10/28 04:31:15;;;;;;;41.90;22.15;;;;;;;7.10;73.35;101043.43;1736416;81;21466;-62
2021/10/28 04:33:44;;;;;;;47.50;23.32;;;;;;;7.12;73.27;101042.76;1735968;81;21466;-63
2021/10/28 04:36:14;;;;;;;47.17;22.70;;;;;;;7.13;73.27;101045.84;1736198;81;21529;-62
2021/10/28 04:38:43;;;;;;;41.08;21.50;;;;;;;7.16;73.27;101037.37;1735844;83;21553;-61
2021/10/28 04:41:11;;;;;;;43.20;21.05;;;;;;;7.17;73.20;101040.45;1735968;83;21104;-61
2021/10/28 04:43:41;;;;;;;40.10;21.10;;;;;;;7.17;73.21;101035.00;1735918;81;21318;-62
2021/10/28 04:46:11;;;;;;;41.60;21.00;;;;;;;7.20;73.22;101033.31;1735917;81;21297;-63
2021/10/28 04:48:39;;;;;;;40.80;20.68;;;;;;;7.22;73.11;101035.88;1735973;81;21161;-62
2021/10/28 04:51:09;;;;;;;44.05;22.55;;;;;;;7.23;73.06;101039.80;1736322;81;21050;-62
2021/10/28 04:53:38;;;;;;;42.20;20.10;;;;;;;7.26;73.07;101037.27;1736070;81;21098;-62
2021/10/28 04:56:07;;;;;;;41.53;21.27;;;;;;;7.28;73.05;101043.41;1735893;81;21204;-64
2021/10/28 04:58:36;;;;;;;44.08;23.22;;;;;;;7.31;73.07;101039.00;1736086;81;21070;-62
2021/10/28 05:01:05;;;;;;;43.23;21.35;;;;;;;7.35;73.02;101036.30;1735875;82;21153;-61
2021/10/28 05:03:35;;;;;;;39.70;21.90;;;;;;;7.39;72.93;101043.64;1735994;83;21082;-63
2021/10/28 05:06:05;;;;;;;37.73;21.02;;;;;;;7.41;72.87;101042.97;1736048;83;21030;-62
2021/10/28 05:08:34;;;;;;;36.17;19.87;;;;;;;7.44;72.79;101041.29;1736158;81;21031;-63
2021/10/28 05:11:03;;;;;;;45.08;21.90;;;;;;;7.46;72.80;101046.07;1736226;81;21534;-63
2021/10/28 05:13:33;;;;;;;37.05;19.50;;;;;;;7.49;72.75;101049.33;1736363;81;21118;-62
2021/10/28 05:16:02;;;;;;;38.30;18.77;;;;;;;7.51;72.71;101039.12;1735967;81;21200;-63
2021/10/28 05:18:39;;;;;;;37.75;19.55;;;;;;;7.57;72.65;101049.88;1736153;81;21516;-63
2021/10/28 05:21:04;;;;;;;39.92;19.75;;;;;;;7.60;72.51;101038.14;1735698;82;21043;-62
2021/10/28 05:23:33;;;;;;;42.03;21.15;;;;;;;7.61;72.49;101036.27;1736411;81;21558;-61
2021/10/28 05:26:02;;;;;;;41.90;21.87;;;;;;;7.65;72.40;101034.92;1736063;82;21506;-62
2021/10/28 05:28:32;;;;;;;43.42;20.95;;;;;;;7.66;72.27;101027.59;1736021;81;21027;-62
2021/10/28 05:31:01;;;;;;;47.55;20.65;;;;;;;7.66;72.22;101028.45;1736022;81;21078;-66
2021/10/28 05:33:30;;;;;;;41.45;20.60;;;;;;;7.69;72.21;101033.58;1736161;83;21486;-62
2021/10/28 05:36:00;;;;;;;42.03;21.17;;;;;;;7.69;72.12;101030.84;1735953;82;21090;-60
2021/10/28 05:38:29;;;;;;;40.30;20.10;;;;;;;7.69;72.12;101042.27;1736181;83;21491;-63
2021/10/28 05:40:58;;;;;;;42.50;20.85;;;;;;;7.70;72.12;101041.25;1736145;83;21556;-62
2021/10/28 05:43:27;;;;;;;44.65;22.17;;;;;;;7.72;72.09;101046.89;1736225;81;21194;-63
2021/10/28 05:45:57;;;;;;;39.67;21.27;;;;;;;7.75;71.98;101056.11;1736258;81;21521;-62
2021/10/28 05:48:25;;;;;;;48.08;22.37;;;;;;;7.76;71.94;101056.45;1736189;83;21113;-66
2021/10/28 05:50:55;;;;;;;42.08;21.20;;;;;;;7.77;71.96;101059.53;1736356;83;21023;-61
2021/10/28 05:53:26;;;;;;;46.20;21.55;;;;;;;7.81;71.90;101056.84;1736042;82;21054;-62
2021/10/28 05:55:56;;;;;;;46.28;21.77;;;;;;;7.86;71.86;101057.72;1736077;83;21063;-62
2021/10/28 05:58:24;;;;;;;47.78;22.22;;;;;;;7.90;71.68;101062.69;1736450;83;21545;-62
2021/10/28 06:00:53;;;;;;;44.33;24.80;;;;;;;7.90;71.60;101066.78;1736160;83;21146;-61
2021/10/28 06:03:23;;;;;;;58.15;30.72;;;;;;;7.89;71.56;101074.63;1736411;83;21526;-63
2021/10/28 06:05:56;;;;;;;56.23;29.30;;;;;;;7.87;71.51;101067.62;1736010;82;21034;-62
2021/10/28 06:08:25;;;;;;;51.28;25.85;;;;;;;7.83;71.56;101061.63;1736166;83;21023;-61
2021/10/28 06:10:57;;;;;;;53.58;25.23;;;;;;;7.83;71.61;101066.23;1736105;83;21070;-62
2021/10/28 06:13:28;;;;;;;53.38;24.90;;;;;;;7.82;71.56;101065.38;1736121;81;21042;-63
2021/10/28 06:15:58;;;;;;;48.68;25.12;;;;;;;7.86;71.57;101070.00;1735999;83;21074;-64
2021/10/28 06:20:55;;;;;;;44.30;22.87;;;;;;;7.90;71.55;101081.78;1736194;82;21066;-62
2021/10/28 06:23:25;;;;;;;43.15;21.42;;;;;;;7.92;71.53;101084.35;1736287;83;21028;-63
2021/10/28 06:25:55;;;;;;;44.33;20.35;;;;;;;7.94;71.56;101084.53;1736102;83;21042;-64
2021/10/28 06:28:24;;;;;;;40.80;20.75;;;;;;;8.01;71.46;101087.97;1736381;83;21590;-62
2021/10/28 06:30:53;;;;;;;40.58;20.15;;;;;;;8.04;71.34;101089.86;1736344;83;21058;-64
2021/10/28 06:33:25;;;;;;;43.33;21.75;;;;;;;8.05;71.35;101083.38;1736126;82;21037;-65
2021/10/28 06:35:54;;;;;;;40.95;22.05;;;;;;;8.09;71.36;101086.12;1736141;83;21482;-64
2021/10/28 06:38:23;;;;;;;40.85;21.10;;;;;;;8.12;71.20;101086.30;1736192;81;21566;-63
2021/10/28 06:40:52;;;;;;;46.10;21.60;;;;;;;8.14;71.18;101087.00;1736155;83;21478;-63
2021/10/28 06:43:21;;;;;;;46.83;23.20;;;;;;;8.18;71.11;101087.01;1736158;82;21074;-64
2021/10/28 06:45:50;;;;;;;45.38;22.48;;;;;;;8.21;71.05;101101.19;1736079;83;21039;-64
2021/10/28 06:48:19;;;;;;;44.42;22.17;;;;;;;8.21;71.00;101097.59;1736179;83;21034;-63
2021/10/28 06:50:52;;;;;;;40.75;21.12;;;;;;;8.19;71.03;101098.27;1736167;81;21102;-65
2021/10/28 06:53:23;;;;;;;43.80;23.62;;;;;;;8.20;71.13;101094.52;1736126;81;21177;-64
2021/10/28 06:55:59;;;;;;;50.10;23.47;;;;;;;8.23;71.10;101096.41;1736290;81;21086;-65
2021/10/28 07:03:58;;;;;;;45.43;22.65;;;;;;;8.36;71.00;101092.39;1736409;83;21042;-63
2021/10/28 07:06:28;;;;;;;37.35;20.72;;;;;;;8.38;71.00;101092.56;1735976;83;21589;-63
2021/10/28 07:09:05;;;;;;;39.63;19.82;;;;;;;8.42;70.91;101087.63;1736179;81;21046;-63
2021/10/28 07:11:32;;;;;;;40.17;19.85;;;;;;;8.45;70.83;101080.46;1735583;82;21122;-63
2021/10/28 07:14:04;;;;;;;38.28;20.43;;;;;;;8.48;70.86;101092.45;1736125;83;21666;-63
2021/10/28 07:19:14;;;;;;;36.23;20.05;;;;;;;8.51;70.88;101084.77;1735902;81;21636;-63
2021/10/28 07:35:13;;;;;;;39.50;21.90;;;;;;;8.76;70.63;101090.27;1656257;86;21098;-64
2021/10/28 08:14:58;;;;;;;49.65;20.40;;;;;;;9.29;70.18;101048.77;1715940;82;21642;-62
2021/10/28 08:20:41;;;;;;;34.33;18.32;;;;;;;9.41;70.07;101036.95;1714793;83;21064;-63
2021/10/28 08:22:48;;;;;;;34.98;19.23;;;;;;;9.46;70.00;101039.50;1721836;82;21048;-61
2021/10/28 08:28:48;;;;;;;36.40;19.82;;;;;;;9.57;69.87;101027.33;1746397;81;21154;-62
2021/10/28 08:31:20;;;;;;;38.65;19.90;;;;;;;9.63;69.70;101028.51;1767871;80;21072;-62
2021/10/28 08:33:51;;;;;;;38.60;18.92;;;;;;;9.65;69.56;101030.04;1762175;80;21057;-61
2021/10/28 08:36:27;;;;;;;37.75;19.32;;;;;;;9.69;69.54;101031.91;1761745;81;21097;-64
2021/10/28 08:38:57;;;;;;;38.02;19.17;;;;;;;9.73;69.47;101034.63;1751840;81;21542;-63
2021/10/28 08:41:28;;;;;;;40.80;21.55;;;;;;;9.78;69.46;101035.84;1705313;83;21178;-63
2021/10/28 08:44:00;;;;;;;45.78;22.05;;;;;;;9.84;69.43;101042.48;1704999;84;21098;-63
2021/10/28 08:46:30;;;;;;;39.35;20.25;;;;;;;9.91;69.37;101039.89;1705299;84;21475;-60
2021/10/28 08:49:03;;;;;;;38.02;19.70;;;;;;;10.00;69.27;101040.19;1705159;84;21569;-61
2021/10/28 08:54:54;;;;;;;38.78;20.20;;;;;;;10.14;68.91;101041.66;1754551;81;21086;-61
2021/10/28 09:00:21;;;;;;;46.18;20.32;;;;;;;10.28;68.65;101046.06;1744204;82;21047;-62
2021/10/28 09:25:38;;;;;;;32.88;16.65;;;;;;;11.08;67.00;101032.33;1773703;80;21055;-61
2021/10/28 09:28:35;;;;;;;31.57;16.67;;;;;;;11.15;66.75;101043.41;1752059;82;21601;-60
2021/10/28 09:31:12;;;;;;;32.75;15.00;;;;;;;11.21;66.59;101031.69;1752080;82;21150;-62
2021/10/28 09:33:56;;;;;;;32.80;16.17;;;;;;;11.27;66.32;101032.31;1755161;81;21018;-61
2021/10/28 09:51:05;;;;;;;24.47;13.40;;;;;;;11.64;65.40;101020.94;1742159;82;21511;-62
2021/10/28 09:59:54;;;;;;;31.90;14.25;;;;;;;11.80;65.61;101018.58;1706221;82;21112;-62
2021/10/28 10:05:19;;;;;;;24.87;13.60;;;;;;;11.94;64.75;101030.06;1737497;82;21044;-61
2021/10/28 10:07:50;;;;;;;24.82;13.88;;;;;;;12.03;64.61;101025.64;1737494;81;21460;-61
2021/10/28 10:10:20;;;;;;;27.30;13.60;;;;;;;12.15;64.42;101030.64;1733891;81;21052;-61
2021/10/28 10:12:49;;;;;;;28.90;14.63;;;;;;;12.23;63.80;101027.27;1735729;81;21027;-61
2021/10/28 10:15:19;;;;;;;29.90;13.75;;;;;;;12.28;63.75;101013.80;1749303;81;21007;-61
2021/10/28 10:17:53;;;;;;;26.23;14.58;;;;;;;12.37;63.68;101013.19;1748011;82;21006;-61
2021/10/28 10:20:31;;;;;;;27.17;14.38;;;;;;;12.42;63.28;101016.72;1743587;82;21194;-61
2021/10/28 10:23:02;;;;;;;26.73;13.93;;;;;;;12.46;63.14;101009.27;1788108;80;21434;-61
2021/10/28 10:29:15;;;;;;;;;;;;;;;12.60;62.87;101017.98;1791680;80;21032;-61
2021/10/28 11:26:37;;;;;;;19.65;10.68;;;;;;;13.64;60.42;100992.93;1742832;82;21467;-62
2021/10/28 11:31:37;;;;;;;25.52;13.20;;;;;;;13.78;59.87;100989.75;1721447;82;21519;-60
2021/10/28 12:49:53;;;;;;;18.00;9.28;;;;;;;13.87;60.41;101019.35;1725828;83;21033;-60
2021/10/28 12:54:58;;;;;;;18.73;9.83;;;;;;;13.86;60.44;101014.90;1725771;82;21532;-62
2021/10/28 13:03:34;;;;;;;13.98;7.97;;;;;;;13.84;60.59;101030.78;1731775;81;21157;-63
2021/10/28 13:48:32;;;;;;;18.52;8.63;;;;;;;13.86;61.25;101060.35;1747362;82;20261;-61
2021/10/28 13:56:20;;;;;;;18.27;10.23;;;;;;;13.86;61.48;101063.11;1742951;82;21561;-62
2021/10/28 14:23:34;;;;;;;22.20;10.50;;;;;;;13.77;61.98;101065.70;1712184;84;21501;-61
2021/10/28 15:32:06;;;;;;;22.32;10.85;;;;;;;13.56;63.71;101117.00;1730619;82;21073;-59
2021/10/28 15:53:39;;;;;;;20.40;8.38;;;;;;;13.58;64.34;101143.81;1668052;84;21493;-62
2021/10/28 16:23:07;;;;;;;14.95;7.37;;;;;;;13.52;65.14;101168.02;1725992;81;21081;-61
2021/10/28 16:25:36;;;;;;;21.77;8.98;;;;;;;13.50;65.33;101160.48;1735935;82;21030;-60
2021/10/28 16:28:07;;;;;;;17.35;8.28;;;;;;;13.49;65.41;101164.81;1732293;83;21089;-61
2021/10/28 16:30:58;;;;;;;26.68;8.48;;;;;;;13.48;65.39;101168.61;1733759;81;21112;-61
2021/10/28 16:33:27;;;;;;;16.17;8.33;;;;;;;13.49;65.56;101178.05;1780024;80;21110;-61
2021/10/28 16:35:56;;;;;;;16.15;8.13;;;;;;;13.48;65.59;101170.84;1780242;80;21113;-60
2021/10/28 16:38:25;;;;;;;12.13;7.17;;;;;;;13.47;65.59;101176.02;1813770;79;21435;-62
2021/10/28 16:40:55;;;;;;;13.08;7.70;;;;;;;13.47;65.66;101172.41;1807199;77;20980;-65
2021/10/28 16:43:23;;;;;;;16.45;7.67;;;;;;;13.45;65.70;101171.77;1784415;79;21030;-62
2021/10/28 16:45:53;;;;;;;12.80;7.67;;;;;;;13.44;65.79;101175.04;1748832;82;21062;-62
2021/10/28 16:48:22;;;;;;;12.93;7.17;;;;;;;13.45;65.80;101175.36;1768946;81;21062;-61
2021/10/28 16:50:54;;;;;;;12.75;6.62;;;;;;;13.45;65.86;101182.25;1781563;79;21157;-60
2021/10/28 16:53:23;;;;;;;12.00;7.05;;;;;;;13.45;66.04;101183.63;1781664;80;21070;-61
2021/10/28 16:55:54;;;;;;;13.35;7.10;;;;;;;13.45;65.99;101186.37;1748335;82;21019;-60
2021/10/28 16:58:23;;;;;;;12.80;6.80;;;;;;;13.46;66.01;101183.95;1788559;79;21456;-62
2021/10/28 17:03:53;;;;;;;15.72;7.33;;;;;;;13.46;65.97;101182.58;1804818;79;21106;-68
2021/10/28 17:06:22;;;;;;;16.62;7.58;;;;;;;13.45;66.01;101191.88;1799925;79;21038;-69
2021/10/28 17:08:56;;;;;;;16.52;8.18;;;;;;;13.44;66.13;101197.06;1799305;80;21992;-68
2021/10/28 17:11:26;;;;;;;15.23;7.92;;;;;;;13.43;66.16;101196.73;1813426;79;21010;-68
2021/10/28 17:13:56;;;;;;;13.35;7.87;;;;;;;13.42;66.24;101201.06;1799736;79;21089;-69
2021/10/28 17:16:26;;;;;;;15.20;7.37;;;;;;;13.42;66.23;101202.44;1799569;80;21117;-69
2021/10/28 17:18:55;;;;;;;14.63;7.25;;;;;;;13.43;66.23;101200.02;1813815;79;21007;-68
2021/10/28 17:21:24;;;;;;;13.98;7.10;;;;;;;13.42;66.24;101203.81;1799551;79;21035;-69
2021/10/28 17:24:05;;;;;;;15.28;7.08;;;;;;;13.42;66.33;101206.04;1799658;80;21027;-67
2021/10/28 17:26:31;;;;;;;14.07;7.33;;;;;;;13.40;66.42;101200.41;1799862;79;21515;-68
2021/10/28 17:29:01;;;;;;;13.90;6.97;;;;;;;13.39;66.40;101208.34;1799682;80;21560;-68
2021/10/28 17:31:32;;;;;;;16.07;7.80;;;;;;;13.37;66.52;101204.41;1798096;80;21083;-69
2021/10/28 17:34:03;;;;;;;12.55;7.33;;;;;;;13.37;66.52;101207.68;1813704;79;21038;-70
2021/10/28 17:36:32;;;;;;;16.05;7.90;;;;;;;13.36;66.61;101209.58;1815707;79;21014;-67
2021/10/28 17:39:05;;;;;;;14.83;7.83;;;;;;;13.35;66.68;101218.89;1813228;79;21133;-70
2021/10/28 17:41:35;;;;;;;10.53;6.75;;;;;;;13.36;66.68;101216.98;1806186;79;21444;-69
2021/10/28 17:44:06;;;;;;;12.55;7.17;;;;;;;13.36;66.67;101216.46;1793543;79;21443;-69
2021/10/28 17:46:36;;;;;;;13.93;7.65;;;;;;;13.37;66.65;101217.31;1793428;80;21047;-69
2021/10/28 17:49:04;;;;;;;14.78;7.50;;;;;;;13.37;66.61;101216.80;1793453;80;21051;-68
2021/10/28 17:51:36;;;;;;;17.67;7.90;;;;;;;13.36;66.74;101216.46;1793431;80;21041;-69
2021/10/28 17:54:10;;;;;;;16.30;8.25;;;;;;;13.33;66.80;101223.22;1793617;79;21118;-70
2021/10/28 17:56:39;;;;;;;22.73;8.50;;;;;;;13.33;66.86;101222.36;1810818;79;21419;-70
2021/10/28 17:59:08;;;;;;;16.05;7.87;;;;;;;13.31;66.91;101227.20;1793565;79;21007;-69
2021/10/28 18:01:40;;;;;;;16.23;8.38;;;;;;;13.30;66.95;101225.50;1793620;79;21126;-71
2021/10/28 18:04:10;;;;;;;17.87;8.88;;;;;;;13.32;66.96;101234.42;1785215;80;21528;-70
2021/10/28 18:06:38;;;;;;;20.15;9.40;;;;;;;13.31;67.03;101232.71;1813723;79;21030;-68
2021/10/28 18:09:09;;;;;;;35.73;14.45;;;;;;;13.28;67.11;101232.58;1811216;79;21038;-70
2021/10/28 18:11:38;;;;;;;24.20;11.05;;;;;;;13.27;67.21;101232.78;1793660;79;21455;-68
2021/10/28 18:14:12;;;;;;;22.55;10.63;;;;;;;13.24;67.22;101228.52;1793557;79;21454;-69
2021/10/28 18:16:40;;;;;;;20.50;9.50;;;;;;;13.25;67.23;101232.97;1793424;79;21099;-70
2021/10/28 18:19:10;;;;;;;18.55;9.55;;;;;;;13.24;67.22;101229.89;1793577;79;21014;-70
2021/10/28 18:21:45;;;;;;;17.98;9.78;;;;;;;13.25;67.28;101232.12;1781986;80;21533;-69
2021/10/28 18:24:17;;;;;;;17.10;9.70;;;;;;;13.23;67.37;101232.84;1813833;78;21469;-68
2021/10/28 18:26:46;;;;;;;17.12;9.53;;;;;;;13.23;67.42;101236.97;1792920;79;21043;-69
2021/10/28 18:29:15;;;;;;;17.57;8.65;;;;;;;13.23;67.50;101239.72;1801271;79;21011;-69
2021/10/28 18:31:44;;;;;;;16.42;9.30;;;;;;;13.20;67.53;101241.48;1781500;80;21479;-69
2021/10/28 18:34:14;;;;;;;17.62;9.28;;;;;;;13.20;67.65;101233.23;1776960;80;21031;-67
2021/10/28 18:36:44;;;;;;;19.45;9.60;;;;;;;13.19;67.66;101237.02;1760861;81;21502;-69
2021/10/28 18:39:15;;;;;;;17.17;9.38;;;;;;;13.19;67.71;101235.66;1760658;81;21559;-69
2021/10/28 18:41:44;;;;;;;18.25;9.80;;;;;;;13.17;67.76;101239.97;1777712;80;21471;-68
2021/10/28 18:44:13;;;;;;;19.85;9.48;;;;;;;13.16;67.85;101237.37;1763422;81;21487;-68
2021/10/28 18:46:42;;;;;;;20.57;9.18;;;;;;;13.16;67.84;101252.52;1776965;80;21399;-69
2021/10/28 18:49:12;;;;;;;17.35;8.98;;;;;;;13.16;67.90;101248.39;1776228;80;21466;-70
2021/10/28 18:51:43;;;;;;;16.50;9.68;;;;;;;13.16;67.96;101251.14;1743393;82;21043;-70
2021/10/28 18:54:11;;;;;;;17.73;9.43;;;;;;;13.13;68.06;101244.13;1776281;79;21451;-70
2021/10/28 18:56:41;;;;;;;14.98;9.15;;;;;;;13.12;68.13;101256.18;1768142;80;21070;-70
2021/10/28 18:59:10;;;;;;;19.73;9.38;;;;;;;13.12;68.22;101252.58;1760250;81;21491;-70
2021/10/28 19:01:40;;;;;;;17.42;8.40;;;;;;;13.10;68.25;101258.27;1755871;80;21083;-70
2021/10/28 19:04:10;;;;;;;16.62;9.60;;;;;;;13.12;68.25;101256.70;1761169;81;21047;-67
2021/10/28 19:06:40;;;;;;;18.73;9.90;;;;;;;13.12;68.26;101263.06;1774040;80;21035;-71
2021/10/28 19:09:13;;;;;;;19.55;9.45;;;;;;;13.12;68.32;101259.45;1743401;81;21554;-69
2021/10/28 19:11:45;;;;;;;18.32;9.53;;;;;;;13.11;68.35;101259.12;1741662;80;21027;-69
2021/10/28 19:14:13;;;;;;;18.48;9.45;;;;;;;13.09;68.45;101263.97;1761565;81;21056;-69
2021/10/28 19:16:43;;;;;;;18.65;9.13;;;;;;;13.11;68.41;101276.48;1775171;80;21048;-70
2021/10/28 19:19:12;;;;;;;17.50;9.45;;;;;;;13.13;68.34;101276.30;1776569;80;21045;-70
2021/10/28 19:21:42;;;;;;;19.52;9.88;;;;;;;13.14;68.34;101276.63;1758651;81;21308;-70
2021/10/28 19:24:12;;;;;;;18.98;9.60;;;;;;;13.12;68.39;101278.20;1776054;80;21015;-71
2021/10/28 19:26:41;;;;;;;20.50;9.48;;;;;;;13.11;68.45;101279.77;1760453;81;21023;-71
2021/10/28 19:29:10;;;;;;;19.82;9.23;;;;;;;13.08;68.53;101281.52;1776772;80;20975;-69
2021/10/28 19:34:32;;;;;;;16.67;8.80;;;;;;;13.09;68.52;101283.23;1743795;81;21063;-69
2021/10/28 19:37:05;;;;;;;17.10;9.35;;;;;;;13.08;68.61;101285.66;1767167;80;21048;-68
2021/10/28 19:47:20;;;;;;;17.32;9.38;;;;;;;13.06;68.79;101293.24;1769169;80;21070;-69
2021/10/28 19:49:50;;;;;;;17.10;9.15;;;;;;;13.03;68.84;101294.48;1776462;79;21181;-70
2021/10/28 19:52:19;;;;;;;17.00;9.40;;;;;;;13.01;68.91;101300.17;1777154;79;21512;-69
2021/10/28 19:54:48;;;;;;;13.98;8.48;;;;;;;13.02;68.92;101305.16;1743431;82;21491;-71
2021/10/28 19:57:23;;;;;;;15.80;8.88;;;;;;;13.01;68.94;101308.43;1776942;80;21015;-70
2021/10/28 20:00:10;;;;;;;18.40;9.85;;;;;;;13.03;68.91;101307.39;1745034;82;21443;-70
2021/10/28 20:02:40;;;;;;;14.73;9.30;;;;;;;13.03;68.97;101310.98;1777352;79;21044;-69
2021/10/28 20:13:57;;;;;;;17.00;9.73;;;;;;;13.01;69.01;101311.18;1769744;80;21455;-70
2021/10/28 20:21:36;;;;;;;18.23;9.55;;;;;;;12.98;69.14;101306.03;1760319;81;21013;-68
2021/10/28 20:24:08;;;;;;;18.10;9.75;;;;;;;12.99;69.09;101309.64;1760172;81;21510;-69